Main page
METAR-TAF:

METAR-TAF

Airports :

Emporia Municipal Airport

Emporia, Kansas, United States

latitude: 38-19-44N, longitude: 096-11-38W, elevation: 1204 ft

Current weather observation

The report was made 44 minutes ago, at 15:53 UTC
Wind 9 mph from the North/Northwest
Temperature 70°F
Humidity 88%
Pressure 29.96 in. Hg
Visibility: 5 miles
Scattered clouds at a height of 1200 ft
Overcast at a height of 8000 ft
mist

METAR: KEMP 281553Z AUTO 33008KT 5SM BR SCT012 OVC080 21/19 A2996 RMK AO2 SLP140 T02060194

Time: 11:37 (16:37 UTC)


TAF: missing

Weather observations and forecasts of more than 4000 airports (METAR and TAF reports).

The available stations are represented by yellow and red dots on the map.

Hover mouse over dot to see the name of the station.

Then click to see weather observations and forecasts.

To change the map : click on the green buttons with a black cross to zoom in, on the green button with a dash to zoom out, or on the green arrows for adjacent maps.


METAR-TAF: